sensor_id;sensor_type;location;lat;lon;timestamp;pressure;altitude;pressure_sealevel;temperature;humidity
19676;BME280;39539;52.202;9.876;2023-04-01T00:01:58;98714.19;;;9.54;100.00
19676;BME280;39539;52.202;9.876;2023-04-01T00:04:23;98727.31;;;9.66;100.00
19676;BME280;39539;52.202;9.876;2023-04-01T00:06:49;98714.41;;;9.53;100.00
19676;BME280;39539;52.202;9.876;2023-04-01T00:09:14;98722.44;;;9.58;100.00
19676;BME280;39539;52.202;9.876;2023-04-01T00:11:40;98726.19;;;9.62;100.00
19676;BME280;39539;52.202;9.876;2023-04-01T00:14:07;98724.28;;;9.57;100.00
19676;BME280;39539;52.202;9.876;2023-04-01T00:16:32;98727.19;;;9.56;100.00
19676;BME280;39539;52.202;9.876;2023-04-01T00:18:58;98719.00;;;9.57;100.00
19676;BME280;39539;52.202;9.876;2023-04-01T00:21:24;98716.56;;;9.56;100.00
19676;BME280;39539;52.202;9.876;2023-04-01T00:23:51;98720.28;;;9.55;100.00
19676;BME280;39539;52.202;9.876;2023-04-01T00:26:16;98723.16;;;9.53;100.00
19676;BME280;39539;52.202;9.876;2023-04-01T00:28:44;98711.03;;;9.35;100.00
19676;BME280;39539;52.202;9.876;2023-04-01T00:31:10;98706.34;;;9.42;100.00
19676;BME280;39539;52.202;9.876;2023-04-01T00:33:36;98724.78;;;9.54;100.00
19676;BME280;39539;52.202;9.876;2023-04-01T00:38:34;98723.09;;;9.48;100.00
19676;BME280;39539;52.202;9.876;2023-04-01T00:40:59;98726.38;;;9.55;100.00
19676;BME280;39539;52.202;9.876;2023-04-01T00:43:25;98713.06;;;9.50;100.00
19676;BME280;39539;52.202;9.876;2023-04-01T00:45:51;98716.63;;;9.61;100.00
19676;BME280;39539;52.202;9.876;2023-04-01T00:48:19;98707.81;;;9.55;100.00
19676;BME280;39539;52.202;9.876;2023-04-01T00:51:02;98726.19;;;9.62;100.00
19676;BME280;39539;52.202;9.876;2023-04-01T00:53:30;98717.38;;;9.56;100.00
19676;BME280;39539;52.202;9.876;2023-04-01T00:56:10;98716.00;;;9.54;100.00
19676;BME280;39539;52.202;9.876;2023-04-01T00:58:40;98731.69;;;9.55;100.00
19676;BME280;39539;52.202;9.876;2023-04-01T01:01:06;98723.97;;;9.54;100.00
19676;BME280;39539;52.202;9.876;2023-04-01T01:03:33;98720.00;;;9.51;100.00
19676;BME280;39539;52.202;9.876;2023-04-01T01:06:31;98733.25;;;9.51;100.00
19676;BME280;39539;52.202;9.876;2023-04-01T01:09:27;98730.19;;;9.42;100.00
19676;BME280;39539;52.202;9.876;2023-04-01T01:12:14;98727.81;;;9.41;100.00
19676;BME280;39539;52.202;9.876;2023-04-01T01:18:03;98730.88;;;9.33;100.00
19676;BME280;39539;52.202;9.876;2023-04-01T01:31:15;98729.34;;;9.15;100.00
19676;BME280;39539;52.202;9.876;2023-04-01T01:34:00;98721.63;;;9.13;100.00
19676;BME280;39539;52.202;9.876;2023-04-01T01:36:31;98719.97;;;9.07;100.00
19676;BME280;39539;52.202;9.876;2023-04-01T01:39:01;98721.75;;;9.02;100.00
19676;BME280;39539;52.202;9.876;2023-04-01T01:41:27;98724.16;;;9.03;100.00
19676;BME280;39539;52.202;9.876;2023-04-01T01:43:55;98713.56;;;9.03;100.00
19676;BME280;39539;52.202;9.876;2023-04-01T01:46:23;98716.75;;;9.05;100.00
19676;BME280;39539;52.202;9.876;2023-04-01T01:48:51;98716.53;;;9.07;100.00
19676;BME280;39539;52.202;9.876;2023-04-01T01:51:18;98729.13;;;8.99;100.00
19676;BME280;39539;52.202;9.876;2023-04-01T01:53:45;98708.22;;;8.81;100.00
19676;BME280;39539;52.202;9.876;2023-04-01T01:56:11;98724.81;;;8.93;100.00
19676;BME280;39539;52.202;9.876;2023-04-01T01:58:46;98729.00;;;8.89;100.00
19676;BME280;39539;52.202;9.876;2023-04-01T02:01:33;98726.66;;;8.93;100.00
19676;BME280;39539;52.202;9.876;2023-04-01T02:03:59;98731.09;;;8.87;100.00
19676;BME280;39539;52.202;9.876;2023-04-01T02:06:28;98726.84;;;8.86;100.00
19676;BME280;39539;52.202;9.876;2023-04-01T02:09:00;98739.53;;;8.84;100.00
19676;BME280;39539;52.202;9.876;2023-04-01T02:12:04;98730.28;;;8.87;100.00
19676;BME280;39539;52.202;9.876;2023-04-01T02:14:39;98733.81;;;8.92;100.00
19676;BME280;39539;52.202;9.876;2023-04-01T02:17:12;98736.13;;;8.89;100.00
19676;BME280;39539;52.202;9.876;2023-04-01T02:19:50;98726.59;;;8.88;100.00
19676;BME280;39539;52.202;9.876;2023-04-01T02:22:29;98734.31;;;8.89;100.00
19676;BME280;39539;52.202;9.876;2023-04-01T02:24:58;98730.69;;;8.95;100.00
19676;BME280;39539;52.202;9.876;2023-04-01T02:27:24;98741.19;;;8.90;100.00
19676;BME280;39539;52.202;9.876;2023-04-01T02:29:51;98735.41;;;8.93;100.00
19676;BME280;39539;52.202;9.876;2023-04-01T02:32:18;98733.03;;;8.92;100.00
19676;BME280;39539;52.202;9.876;2023-04-01T02:34:45;98737.66;;;9.02;100.00
19676;BME280;39539;52.202;9.876;2023-04-01T02:37:11;98737.84;;;8.95;100.00
19676;BME280;39539;52.202;9.876;2023-04-01T02:39:37;98737.56;;;8.96;100.00
19676;BME280;39539;52.202;9.876;2023-04-01T02:42:03;98744.00;;;9.01;100.00
19676;BME280;39539;52.202;9.876;2023-04-01T02:44:28;98748.16;;;8.96;100.00
19676;BME280;39539;52.202;9.876;2023-04-01T02:46:53;98742.88;;;8.96;100.00
19676;BME280;39539;52.202;9.876;2023-04-01T02:49:19;98744.53;;;9.03;100.00
19676;BME280;39539;52.202;9.876;2023-04-01T02:51:44;98740.38;;;9.07;100.00
19676;BME280;39539;52.202;9.876;2023-04-01T02:54:10;98736.66;;;9.08;100.00
19676;BME280;39539;52.202;9.876;2023-04-01T02:56:35;98751.28;;;9.10;100.00
19676;BME280;39539;52.202;9.876;2023-04-01T02:59:00;98747.25;;;9.08;100.00
19676;BME280;39539;52.202;9.876;2023-04-01T03:01:26;98736.53;;;8.97;100.00
19676;BME280;39539;52.202;9.876;2023-04-01T03:03:51;98752.06;;;9.11;100.00
19676;BME280;39539;52.202;9.876;2023-04-01T03:06:17;98752.56;;;9.08;100.00
19676;BME280;39539;52.202;9.876;2023-04-01T03:08:43;98744.69;;;9.13;100.00
19676;BME280;39539;52.202;9.876;2023-04-01T03:11:09;98751.91;;;9.17;100.00
19676;BME280;39539;52.202;9.876;2023-04-01T03:13:36;98755.94;;;9.20;100.00
19676;BME280;39539;52.202;9.876;2023-04-01T03:16:01;98744.69;;;9.13;100.00
19676;BME280;39539;52.202;9.876;2023-04-01T03:18:27;98744.56;;;9.25;100.00
19676;BME280;39539;52.202;9.876;2023-04-01T03:20:52;98742.72;;;9.25;100.00
19676;BME280;39539;52.202;9.876;2023-04-01T03:23:17;98758.38;;;9.27;100.00
19676;BME280;39539;52.202;9.876;2023-04-01T03:25:45;98754.38;;;9.24;100.00
19676;BME280;39539;52.202;9.876;2023-04-01T03:28:10;98753.31;;;9.25;100.00
19676;BME280;39539;52.202;9.876;2023-04-01T03:30:37;98731.50;;;9.18;100.00
19676;BME280;39539;52.202;9.876;2023-04-01T03:33:02;98732.06;;;9.20;100.00
19676;BME280;39539;52.202;9.876;2023-04-01T03:35:28;98745.69;;;9.29;100.00
19676;BME280;39539;52.202;9.876;2023-04-01T03:37:53;98745.94;;;9.27;100.00
19676;BME280;39539;52.202;9.876;2023-04-01T03:40:20;98753.97;;;9.32;100.00
19676;BME280;39539;52.202;9.876;2023-04-01T03:42:46;98749.94;;;9.30;100.00
19676;BME280;39539;52.202;9.876;2023-04-01T03:45:11;98752.81;;;9.28;100.00
19676;BME280;39539;52.202;9.876;2023-04-01T03:47:37;98740.13;;;9.30;100.00
19676;BME280;39539;52.202;9.876;2023-04-01T03:50:02;98744.66;;;9.30;100.00
19676;BME280;39539;52.202;9.876;2023-04-01T03:52:28;98756.13;;;9.35;100.00
19676;BME280;39539;52.202;9.876;2023-04-01T03:54:53;98751.22;;;9.27;100.00
19676;BME280;39539;52.202;9.876;2023-04-01T03:57:19;98739.53;;;9.23;100.00
19676;BME280;39539;52.202;9.876;2023-04-01T03:59:44;98745.63;;;9.24;100.00
19676;BME280;39539;52.202;9.876;2023-04-01T04:02:09;98749.22;;;9.34;100.00
19676;BME280;39539;52.202;9.876;2023-04-01T04:04:35;98755.75;;;9.27;100.00
19676;BME280;39539;52.202;9.876;2023-04-01T04:07:00;98751.03;;;9.34;100.00
19676;BME280;39539;52.202;9.876;2023-04-01T04:09:26;98752.59;;;9.30;100.00
19676;BME280;39539;52.202;9.876;2023-04-01T04:11:51;98755.06;;;9.36;100.00
19676;BME280;39539;52.202;9.876;2023-04-01T04:14:17;98756.41;;;9.39;100.00
19676;BME280;39539;52.202;9.876;2023-04-01T04:16:42;98756.34;;;9.34;100.00
19676;BME280;39539;52.202;9.876;2023-04-01T04:19:07;98747.78;;;9.27;100.00
19676;BME280;39539;52.202;9.876;2023-04-01T04:21:33;98756.69;;;9.37;100.00
19676;BME280;39539;52.202;9.876;2023-04-01T04:23:59;98760.94;;;9.38;100.00
19676;BME280;39539;52.202;9.876;2023-04-01T04:26:25;98756.13;;;9.35;100.00
19676;BME280;39539;52.202;9.876;2023-04-01T04:28:51;98758.19;;;9.33;100.00
19676;BME280;39539;52.202;9.876;2023-04-01T04:31:24;98762.47;;;9.34;100.00
19676;BME280;39539;52.202;9.876;2023-04-01T04:33:50;98773.53;;;9.31;100.00
19676;BME280;39539;52.202;9.876;2023-04-01T04:36:16;98767.81;;;9.39;100.00
19676;BME280;39539;52.202;9.876;2023-04-01T04:38:42;98774.38;;;9.32;100.00
19676;BME280;39539;52.202;9.876;2023-04-01T04:41:11;98765.66;;;9.36;100.00
19676;BME280;39539;52.202;9.876;2023-04-01T04:43:38;98768.88;;;9.38;100.00
19676;BME280;39539;52.202;9.876;2023-04-01T04:46:09;98766.03;;;9.23;100.00
19676;BME280;39539;52.202;9.876;2023-04-01T04:48:35;98771.16;;;9.30;100.00
19676;BME280;39539;52.202;9.876;2023-04-01T04:51:00;98775.97;;;9.33;100.00
19676;BME280;39539;52.202;9.876;2023-04-01T04:53:26;98777.25;;;9.30;100.00
19676;BME280;39539;52.202;9.876;2023-04-01T04:55:52;98755.59;;;9.16;100.00
19676;BME280;39539;52.202;9.876;2023-04-01T04:58:17;98758.66;;;9.08;100.00
19676;BME280;39539;52.202;9.876;2023-04-01T05:00:43;98767.84;;;9.01;100.00
19676;BME280;39539;52.202;9.876;2023-04-01T05:03:10;98770.16;;;8.97;100.00
19676;BME280;39539;52.202;9.876;2023-04-01T05:05:35;98784.78;;;8.99;100.00
19676;BME280;39539;52.202;9.876;2023-04-01T05:08:01;98785.34;;;9.02;100.00
19676;BME280;39539;52.202;9.876;2023-04-01T05:10:26;98789.59;;;9.03;100.00
19676;BME280;39539;52.202;9.876;2023-04-01T05:12:51;98782.13;;;8.99;100.00
19676;BME280;39539;52.202;9.876;2023-04-01T05:15:17;98789.84;;;9.01;100.00
19676;BME280;39539;52.202;9.876;2023-04-01T05:17:42;98776.81;;;8.99;100.00
19676;BME280;39539;52.202;9.876;2023-04-01T05:20:08;98795.84;;;9.13;100.00
19676;BME280;39539;52.202;9.876;2023-04-01T05:22:33;98791.13;;;9.15;100.00
19676;BME280;39539;52.202;9.876;2023-04-01T05:24:59;98794.63;;;9.21;100.00
19676;BME280;39539;52.202;9.876;2023-04-01T05:27:24;98761.56;;;9.07;100.00
19676;BME280;39539;52.202;9.876;2023-04-01T05:29:49;98794.16;;;9.24;100.00
19676;BME280;39539;52.202;9.876;2023-04-01T05:32:15;98794.31;;;9.17;100.00
19676;BME280;39539;52.202;9.876;2023-04-01T05:34:41;98786.78;;;9.09;100.00
19676;BME280;39539;52.202;9.876;2023-04-01T05:37:06;98797.84;;;9.23;100.00
19676;BME280;39539;52.202;9.876;2023-04-01T05:39:36;98793.34;;;9.24;100.00
19676;BME280;39539;52.202;9.876;2023-04-01T05:42:02;98803.47;;;9.27;100.00
19676;BME280;39539;52.202;9.876;2023-04-01T05:44:27;98810.75;;;9.36;100.00
19676;BME280;39539;52.202;9.876;2023-04-01T05:46:52;98809.53;;;9.44;100.00
19676;BME280;39539;52.202;9.876;2023-04-01T05:49:18;98808.31;;;9.52;100.00
19676;BME280;39539;52.202;9.876;2023-04-01T05:51:43;98811.69;;;9.69;100.00
19676;BME280;39539;52.202;9.876;2023-04-01T05:54:08;98792.88;;;9.71;100.00
19676;BME280;39539;52.202;9.876;2023-04-01T05:56:34;98809.34;;;9.95;100.00
19676;BME280;39539;52.202;9.876;2023-04-01T05:58:59;98808.34;;;10.01;100.00
19676;BME280;39539;52.202;9.876;2023-04-01T06:01:24;98800.78;;;10.15;100.00
19676;BME280;39539;52.202;9.876;2023-04-01T06:03:50;98799.50;;;10.17;100.00
19676;BME280;39539;52.202;9.876;2023-04-01T06:06:29;98805.38;;;10.24;100.00
19676;BME280;39539;52.202;9.876;2023-04-01T06:08:57;98813.59;;;10.45;100.00
19676;BME280;39539;52.202;9.876;2023-04-01T06:11:37;98816.56;;;10.48;100.00
19676;BME280;39539;52.202;9.876;2023-04-01T06:14:21;98810.00;;;10.56;100.00
19676;BME280;39539;52.202;9.876;2023-04-01T06:24:59;98817.44;;;10.91;100.00
19676;BME280;39539;52.202;9.876;2023-04-01T06:27:59;98818.88;;;11.09;100.00
19676;BME280;39539;52.202;9.876;2023-04-01T06:33:34;98814.22;;;11.27;100.00
19676;BME280;39539;52.202;9.876;2023-04-01T06:42:14;98813.03;;;11.50;100.00
19676;BME280;39539;52.202;9.876;2023-04-01T06:50:30;98817.16;;;11.30;100.00
19676;BME280;39539;52.202;9.876;2023-04-01T06:53:10;98813.41;;;11.26;100.00
19676;BME280;39539;52.202;9.876;2023-04-01T06:58:13;98814.16;;;11.16;100.00
19676;BME280;39539;52.202;9.876;2023-04-01T07:00:44;98817.38;;;11.18;100.00
19676;BME280;39539;52.202;9.876;2023-04-01T07:03:51;98822.88;;;11.12;100.00
19676;BME280;39539;52.202;9.876;2023-04-01T07:06:32;98822.13;;;11.16;100.00
19676;BME280;39539;52.202;9.876;2023-04-01T07:09:02;98823.31;;;11.36;100.00
19676;BME280;39539;52.202;9.876;2023-04-01T07:11:35;98815.13;;;11.48;100.00
19676;BME280;39539;52.202;9.876;2023-04-01T07:14:06;98810.41;;;11.65;100.00
19676;BME280;39539;52.202;9.876;2023-04-01T07:19:31;98820.72;;;12.14;100.00
19676;BME280;39539;52.202;9.876;2023-04-01T07:25:33;98821.63;;;12.76;100.00
19676;BME280;39539;52.202;9.876;2023-04-01T07:28:05;98825.06;;;12.81;100.00
19676;BME280;39539;52.202;9.876;2023-04-01T07:33:43;98830.09;;;13.24;100.00
19676;BME280;39539;52.202;9.876;2023-04-01T07:39:03;98838.91;;;13.24;97.39
19676;BME280;39539;52.202;9.876;2023-04-01T07:41:56;98823.72;;;13.35;98.01
19676;BME280;39539;52.202;9.876;2023-04-01T07:44:54;98841.84;;;13.33;96.37
19676;BME280;39539;52.202;9.876;2023-04-01T08:00:42;98839.22;;;13.02;98.52
19676;BME280;39539;52.202;9.876;2023-04-01T08:06:48;98833.31;;;13.41;96.52
19676;BME280;39539;52.202;9.876;2023-04-01T08:09:15;98849.22;;;13.77;96.50
19676;BME280;39539;52.202;9.876;2023-04-01T08:14:45;98855.41;;;13.67;94.84
19676;BME280;39539;52.202;9.876;2023-04-01T08:22:30;98855.13;;;14.29;92.83
19676;BME280;39539;52.202;9.876;2023-04-01T08:25:02;98857.88;;;14.13;91.65
19676;BME280;39539;52.202;9.876;2023-04-01T08:27:41;98854.09;;;14.25;89.48
19676;BME280;39539;52.202;9.876;2023-04-01T08:33:19;98859.56;;;13.99;91.46
19676;BME280;39539;52.202;9.876;2023-04-01T08:38:24;98846.56;;;13.72;93.10
19676;BME280;39539;52.202;9.876;2023-04-01T08:56:58;98861.78;;;15.15;86.21
19676;BME280;39539;52.202;9.876;2023-04-01T09:05:12;98856.47;;;15.63;79.74
19676;BME280;39539;52.202;9.876;2023-04-01T09:11:11;98854.75;;;15.78;81.76
19676;BME280;39539;52.202;9.876;2023-04-01T09:13:55;98854.75;;;15.78;80.03
19676;BME280;39539;52.202;9.876;2023-04-01T09:19:33;98859.38;;;16.15;81.24
19676;BME280;39539;52.202;9.876;2023-04-01T09:22:08;98861.69;;;16.41;78.03
19676;BME280;39539;52.202;9.876;2023-04-01T09:27:43;98856.47;;;15.63;79.03
19676;BME280;39539;52.202;9.876;2023-04-01T09:30:31;98856.25;;;15.31;77.88
19676;BME280;39539;52.202;9.876;2023-04-01T09:36:26;98872.75;;;15.43;78.13
19676;BME280;39539;52.202;9.876;2023-04-01T09:41:32;98883.72;;;15.70;78.98
19676;BME280;39539;52.202;9.876;2023-04-01T09:44:21;98882.84;;;15.80;79.86
19676;BME280;39539;52.202;9.876;2023-04-01T10:17:05;98906.56;;;15.63;82.24
19676;BME280;39539;52.202;9.876;2023-04-01T10:28:10;98908.59;;;16.00;80.54
19676;BME280;39539;52.202;9.876;2023-04-01T10:36:56;98911.56;;;15.99;82.42
19676;BME280;39539;52.202;9.876;2023-04-01T11:05:02;98930.38;;;15.64;87.86
19676;BME280;39539;52.202;9.876;2023-04-01T11:13:39;98929.78;;;15.73;82.64
19676;BME280;39539;52.202;9.876;2023-04-01T11:16:31;98922.47;;;15.54;85.38
19676;BME280;39539;52.202;9.876;2023-04-01T11:19:08;98936.28;;;15.90;86.09
19676;BME280;39539;52.202;9.876;2023-04-01T11:24:30;98934.59;;;16.24;78.62
19676;BME280;39539;52.202;9.876;2023-04-01T11:30:01;98942.78;;;15.55;84.33
19676;BME280;39539;52.202;9.876;2023-04-01T11:38:31;98953.38;;;15.70;85.86
19676;BME280;39539;52.202;9.876;2023-04-01T11:43:58;98952.06;;;15.34;88.32
19676;BME280;39539;52.202;9.876;2023-04-01T11:46:48;98958.72;;;15.41;86.89
19676;BME280;39539;52.202;9.876;2023-04-01T11:52:21;98964.28;;;15.16;81.05
19676;BME280;39539;52.202;9.876;2023-04-01T12:09:01;98978.03;;;14.99;85.88
19676;BME280;39539;52.202;9.876;2023-04-01T12:11:33;98978.16;;;14.78;88.48
19676;BME280;39539;52.202;9.876;2023-04-01T12:14:36;98989.38;;;14.80;90.74
19676;BME280;39539;52.202;9.876;2023-04-01T12:19:58;98993.34;;;15.27;83.35
19676;BME280;39539;52.202;9.876;2023-04-01T12:22:42;98994.59;;;15.06;82.96
19676;BME280;39539;52.202;9.876;2023-04-01T12:28:29;98996.25;;;14.92;82.90
19676;BME280;39539;52.202;9.876;2023-04-01T12:41:59;99006.41;;;14.30;89.74
19676;BME280;39539;52.202;9.876;2023-04-01T12:47:16;99020.78;;;14.54;89.72
19676;BME280;39539;52.202;9.876;2023-04-01T12:55:54;99017.06;;;14.55;83.37
19676;BME280;39539;52.202;9.876;2023-04-01T12:58:38;99023.97;;;14.67;83.88
19676;BME280;39539;52.202;9.876;2023-04-01T13:04:25;99032.25;;;15.15;84.62
19676;BME280;39539;52.202;9.876;2023-04-01T13:06:57;99032.06;;;14.36;86.90
19676;BME280;39539;52.202;9.876;2023-04-01T13:23:11;99056.38;;;14.34;87.22
19676;BME280;39539;52.202;9.876;2023-04-01T13:31:35;99055.09;;;14.11;89.65
19676;BME280;39539;52.202;9.876;2023-04-01T13:34:16;99053.75;;;13.32;91.81
19676;BME280;39539;52.202;9.876;2023-04-01T13:40:04;99064.22;;;12.76;97.92
19676;BME280;39539;52.202;9.876;2023-04-01T13:42:47;99075.19;;;12.79;100.00
19676;BME280;39539;52.202;9.876;2023-04-01T13:54:16;99105.94;;;12.07;100.00
19676;BME280;39539;52.202;9.876;2023-04-01T14:04:53;99128.16;;;11.37;100.00
19676;BME280;39539;52.202;9.876;2023-04-01T14:07:35;99132.44;;;11.38;100.00
19676;BME280;39539;52.202;9.876;2023-04-01T14:10:18;99138.22;;;11.30;100.00
19676;BME280;39539;52.202;9.876;2023-04-01T14:18:04;99164.31;;;11.33;100.00
19676;BME280;39539;52.202;9.876;2023-04-01T14:21:04;99178.06;;;11.24;100.00
19676;BME280;39539;52.202;9.876;2023-04-01T14:26:34;99183.69;;;10.89;100.00
19676;BME280;39539;52.202;9.876;2023-04-01T14:40:00;99218.84;;;10.91;100.00
19676;BME280;39539;52.202;9.876;2023-04-01T14:45:55;99222.84;;;10.94;100.00
19676;BME280;39539;52.202;9.876;2023-04-01T14:51:13;99216.97;;;10.92;100.00
19676;BME280;39539;52.202;9.876;2023-04-01T14:53:56;99227.91;;;10.40;100.00
19676;BME280;39539;52.202;9.876;2023-04-01T14:56:44;99241.31;;;10.33;100.00
19676;BME280;39539;52.202;9.876;2023-04-01T15:01:51;99251.16;;;10.04;100.00
19676;BME280;39539;52.202;9.876;2023-04-01T15:04:37;99262.34;;;9.77;100.00
19676;BME280;39539;52.202;9.876;2023-04-01T15:12:37;99275.94;;;9.17;100.00
19676;BME280;39539;52.202;9.876;2023-04-01T15:15:16;99290.47;;;9.03;100.00
19676;BME280;39539;52.202;9.876;2023-04-01T15:17:55;99279.41;;;8.94;100.00
19676;BME280;39539;52.202;9.876;2023-04-01T15:26:06;99300.63;;;8.82;100.00
19676;BME280;39539;52.202;9.876;2023-04-01T15:28:39;99323.84;;;8.68;100.00
19676;BME280;39539;52.202;9.876;2023-04-01T15:31:32;99313.44;;;8.43;100.00
19676;BME280;39539;52.202;9.876;2023-04-01T15:49:55;99363.31;;;8.28;100.00
19676;BME280;39539;52.202;9.876;2023-04-01T15:52:33;99355.31;;;8.16;100.00
19676;BME280;39539;52.202;9.876;2023-04-01T15:57:52;99363.78;;;8.06;100.00
19676;BME280;39539;52.202;9.876;2023-04-01T16:14:55;99407.81;;;7.82;100.00
19676;BME280;39539;52.202;9.876;2023-04-01T16:20:22;99409.00;;;7.86;100.00
19676;BME280;39539;52.202;9.876;2023-04-01T16:22:57;99405.53;;;7.68;100.00
19676;BME280;39539;52.202;9.876;2023-04-01T16:25:36;99421.25;;;7.81;100.00
19676;BME280;39539;52.202;9.876;2023-04-01T16:28:26;99422.94;;;7.75;100.00
19676;BME280;39539;52.202;9.876;2023-04-01T16:31:29;99433.81;;;7.67;100.00
19676;BME280;39539;52.202;9.876;2023-04-01T16:44:59;99457.50;;;7.55;100.00
19676;BME280;39539;52.202;9.876;2023-04-01T16:47:36;99463.06;;;7.47;100.00
19676;BME280;39539;52.202;9.876;2023-04-01T16:50:20;99474.84;;;7.51;100.00
19676;BME280;39539;52.202;9.876;2023-04-01T16:55:35;99487.44;;;7.24;100.00
19676;BME280;39539;52.202;9.876;2023-04-01T16:58:01;99483.63;;;7.20;100.00
19676;BME280;39539;52.202;9.876;2023-04-01T17:03:53;99502.00;;;7.08;100.00
19676;BME280;39539;52.202;9.876;2023-04-01T17:14:29;99526.03;;;7.00;100.00
19676;BME280;39539;52.202;9.876;2023-04-01T17:25:38;99558.19;;;6.84;100.00
19676;BME280;39539;52.202;9.876;2023-04-01T17:28:27;99563.53;;;6.77;100.00
19676;BME280;39539;52.202;9.876;2023-04-01T17:31:18;99560.06;;;6.70;100.00
19676;BME280;39539;52.202;9.876;2023-04-01T17:36:36;99573.72;;;6.53;100.00
19676;BME280;39539;52.202;9.876;2023-04-01T17:44:37;99589.22;;;6.43;100.00
19676;BME280;39539;52.202;9.876;2023-04-01T17:50:04;99616.81;;;6.41;100.00
19676;BME280;39539;52.202;9.876;2023-04-01T17:52:45;99629.00;;;6.42;100.00
19676;BME280;39539;52.202;9.876;2023-04-01T18:00:59;99645.25;;;6.39;100.00
19676;BME280;39539;52.202;9.876;2023-04-01T18:06:30;99664.94;;;6.16;100.00
19676;BME280;39539;52.202;9.876;2023-04-01T18:09:01;99663.53;;;6.07;100.00
19676;BME280;39539;52.202;9.876;2023-04-01T18:11:39;99687.88;;;6.09;100.00
19676;BME280;39539;52.202;9.876;2023-04-01T18:22:19;99703.22;;;5.85;100.00
19676;BME280;39539;52.202;9.876;2023-04-01T18:27:29;99722.25;;;5.74;100.00
19676;BME280;39539;52.202;9.876;2023-04-01T18:30:15;99716.38;;;5.72;100.00
19676;BME280;39539;52.202;9.876;2023-04-01T18:35:52;99740.06;;;5.66;100.00
19676;BME280;39539;52.202;9.876;2023-04-01T18:38:29;99748.78;;;5.66;100.00
19676;BME280;39539;52.202;9.876;2023-04-01T18:41:15;99752.84;;;5.62;100.00
19676;BME280;39539;52.202;9.876;2023-04-01T18:44:04;99752.22;;;5.60;100.00
19676;BME280;39539;52.202;9.876;2023-04-01T18:46:59;99755.06;;;5.58;100.00
19676;BME280;39539;52.202;9.876;2023-04-01T18:49:52;99767.47;;;5.65;100.00
19676;BME280;39539;52.202;9.876;2023-04-01T18:52:39;99778.38;;;5.55;100.00
19676;BME280;39539;52.202;9.876;2023-04-01T18:57:50;99793.72;;;5.45;100.00
19676;BME280;39539;52.202;9.876;2023-04-01T19:03:23;99790.69;;;5.41;100.00
19676;BME280;39539;52.202;9.876;2023-04-01T19:05:53;99808.09;;;5.42;100.00
19676;BME280;39539;52.202;9.876;2023-04-01T19:08:35;99811.78;;;5.48;100.00
19676;BME280;39539;52.202;9.876;2023-04-01T19:13:57;99826.31;;;5.37;100.00
19676;BME280;39539;52.202;9.876;2023-04-01T19:16:35;99832.72;;;5.21;100.00
19676;BME280;39539;52.202;9.876;2023-04-01T19:19:27;99842.66;;;5.26;100.00
19676;BME280;39539;52.202;9.876;2023-04-01T19:21:57;99846.47;;;5.23;100.00
19676;BME280;39539;52.202;9.876;2023-04-01T19:27:34;99857.41;;;5.20;100.00
19676;BME280;39539;52.202;9.876;2023-04-01T19:38:04;99883.16;;;5.18;100.00
19676;BME280;39539;52.202;9.876;2023-04-01T19:40:59;99873.22;;;5.20;100.00
19676;BME280;39539;52.202;9.876;2023-04-01T19:46:44;99903.28;;;5.04;100.00
19676;BME280;39539;52.202;9.876;2023-04-01T19:52:22;99922.41;;;4.91;100.00
19676;BME280;39539;52.202;9.876;2023-04-01T19:54:54;99917.91;;;4.85;100.00
19676;BME280;39539;52.202;9.876;2023-04-01T20:09:03;99938.97;;;4.85;100.00
19676;BME280;39539;52.202;9.876;2023-04-01T20:12:00;99956.50;;;4.78;100.00
19676;BME280;39539;52.202;9.876;2023-04-01T20:14:32;99960.25;;;4.69;100.00
19676;BME280;39539;52.202;9.876;2023-04-01T20:19:39;99976.34;;;4.59;100.00
19676;BME280;39539;52.202;9.876;2023-04-01T20:24:48;99979.25;;;4.49;100.00
19676;BME280;39539;52.202;9.876;2023-04-01T20:32:49;100009.69;;;4.37;100.00
19676;BME280;39539;52.202;9.876;2023-04-01T20:35:42;100026.84;;;4.33;100.00
19676;BME280;39539;52.202;9.876;2023-04-01T20:41:20;100032.81;;;4.27;100.00
19676;BME280;39539;52.202;9.876;2023-04-01T20:46:20;100039.00;;;4.19;100.00
19676;BME280;39539;52.202;9.876;2023-04-01T20:57:19;100067.19;;;4.11;100.00
19676;BME280;39539;52.202;9.876;2023-04-01T21:00:03;100066.91;;;4.05;100.00
19676;BME280;39539;52.202;9.876;2023-04-01T21:16:47;100115.63;;;3.93;100.00
19676;BME280;39539;52.202;9.876;2023-04-01T21:19:25;100104.03;;;3.88;100.00
19676;BME280;39539;52.202;9.876;2023-04-01T21:27:18;100133.06;;;3.94;100.00
19676;BME280;39539;52.202;9.876;2023-04-01T21:29:51;100138.84;;;3.90;100.00
19676;BME280;39539;52.202;9.876;2023-04-01T21:32:20;100146.72;;;3.90;100.00
19676;BME280;39539;52.202;9.876;2023-04-01T21:34:58;100148.38;;;3.91;100.00
19676;BME280;39539;52.202;9.876;2023-04-01T21:37:36;100145.97;;;3.81;100.00
19676;BME280;39539;52.202;9.876;2023-04-01T21:59:04;100192.69;;;3.71;100.00
19676;BME280;39539;52.202;9.876;2023-04-01T22:01:46;100194.34;;;3.72;100.00
19676;BME280;39539;52.202;9.876;2023-04-01T22:12:39;100191.56;;;3.65;100.00
19676;BME280;39539;52.202;9.876;2023-04-01T22:15:16;100212.13;;;3.62;100.00
19676;BME280;39539;52.202;9.876;2023-04-01T22:17:52;100225.03;;;3.48;100.00
19676;BME280;39539;52.202;9.876;2023-04-01T22:20:48;100229.25;;;3.57;100.00
19676;BME280;39539;52.202;9.876;2023-04-01T22:23:26;100220.44;;;3.42;100.00
19676;BME280;39539;52.202;9.876;2023-04-01T22:26:24;100230.09;;;3.50;100.00
19676;BME280;39539;52.202;9.876;2023-04-01T22:37:01;100265.06;;;3.50;100.00
19676;BME280;39539;52.202;9.876;2023-04-01T22:39:41;100256.72;;;3.47;100.00
19676;BME280;39539;52.202;9.876;2023-04-01T22:42:12;100254.09;;;3.47;100.00
19676;BME280;39539;52.202;9.876;2023-04-01T22:44:55;100256.44;;;3.33;100.00
19676;BME280;39539;52.202;9.876;2023-04-01T22:55:30;100284.53;;;3.25;100.00